Time;durP1;ratioP1;P1;durP2;ratioP2;P2;SDS_P1;SDS_P2;PMS_P1;PMS_P2;Temp;Humidity;BMP_temperature;BMP_pressure;BME280_temperature;BME280_humidity;BME280_pressure;Samples;Min_cycle;Max_cycle;Signal;HPM_P1;HPM_P2
2024/03/23 00:01:00;;;;;;;26.23;15.60;;;;;;;20.94;51.46;100228.30;2386501;73;50737;-82
2024/03/23 00:04:04;;;;;;;31.20;16.42;;;;;;;20.94;51.45;100228.83;2385074;73;49963;-81
2024/03/23 00:07:07;;;;;;;27.00;16.12;;;;;;;20.93;51.41;100235.22;2388287;73;51522;-81
2024/03/23 00:10:10;;;;;;;28.60;15.68;;;;;;;20.91;51.34;100224.70;2381659;74;51444;-81
2024/03/23 00:13:14;;;;;;;25.35;15.13;;;;;;;20.92;51.32;100229.02;2381817;74;50639;-82
2024/03/23 00:16:17;;;;;;;28.35;14.75;;;;;;;20.91;51.29;100219.31;2392850;73;50385;-81
2024/03/23 00:19:20;;;;;;;28.23;15.35;;;;;;;20.90;51.26;100216.30;2381004;73;51258;-81
2024/03/23 00:22:23;;;;;;;21.68;13.38;;;;;;;20.91;51.23;100218.46;2418402;72;51478;-82
2024/03/23 00:25:26;;;;;;;27.32;14.65;;;;;;;20.90;51.21;100208.23;2419227;72;51693;-82
2024/03/23 00:28:30;;;;;;;28.05;15.03;;;;;;;20.90;51.19;100203.37;2353175;74;49586;-82
2024/03/23 00:31:33;;;;;;;22.55;13.83;;;;;;;20.90;51.19;100207.41;2344617;74;50829;-82
2024/03/23 00:34:36;;;;;;;23.80;14.70;;;;;;;20.90;51.18;100207.41;2383908;74;51490;-81
2024/03/23 00:37:39;;;;;;;29.85;15.13;;;;;;;20.89;51.19;100197.17;2391280;73;51572;-81
2024/03/23 00:40:42;;;;;;;27.00;14.40;;;;;;;20.88;51.20;100190.13;2415163;72;50743;-81
2024/03/23 00:43:45;;;;;;;24.90;15.08;;;;;;;20.88;51.23;100187.44;2401834;73;49465;-81
2024/03/23 00:46:49;;;;;;;27.35;15.05;;;;;;;20.87;51.26;100181.23;2402046;73;50085;-81
2024/03/23 00:49:52;;;;;;;23.83;13.30;;;;;;;20.87;51.25;100175.86;2384095;73;51452;-81
2024/03/23 00:52:54;;;;;;;28.15;14.70;;;;;;;20.89;51.16;100170.28;2402320;73;51007;-81
2024/03/23 00:55:56;;;;;;;24.85;13.53;;;;;;;20.88;51.16;100155.16;2383932;74;50787;-81
2024/03/23 00:58:58;;;;;;;23.15;13.43;;;;;;;20.87;51.13;100139.55;2392301;73;51468;-82
2024/03/23 01:02:00;;;;;;;26.02;13.72;;;;;;;20.87;51.09;100147.62;2426683;73;50611;-81
2024/03/23 01:05:03;;;;;;;23.20;13.48;;;;;;;20.87;51.05;100150.31;2360056;73;50637;-82
2024/03/23 01:08:06;;;;;;;25.05;13.88;;;;;;;20.87;51.01;100140.08;2333654;73;50065;-82
2024/03/23 01:11:08;;;;;;;25.65;13.08;;;;;;;20.88;51.02;100145.75;2332836;74;51207;-82
2024/03/23 01:14:10;;;;;;;28.45;13.40;;;;;;;20.87;50.95;100146.80;2382854;74;50204;-81
2024/03/23 01:17:12;;;;;;;25.27;12.93;;;;;;;20.87;50.92;100149.48;2317459;74;51501;-83
2024/03/23 01:20:15;;;;;;;26.45;13.25;;;;;;;20.86;50.90;100147.84;2348420;73;51457;-83
2024/03/23 01:23:17;;;;;;;25.32;12.20;;;;;;;20.84;50.86;100137.81;2361150;73;51303;-80
2024/03/23 01:26:19;;;;;;;27.93;11.78;;;;;;;20.83;50.84;100146.41;2389786;73;51294;-84
2024/03/23 01:29:21;;;;;;;21.05;12.03;;;;;;;20.83;50.82;100135.65;2387343;73;50695;-81
2024/03/23 01:32:23;;;;;;;21.40;12.20;;;;;;;20.84;50.83;100125.19;2361489;74;50990;-83
2024/03/23 01:35:26;;;;;;;19.40;11.30;;;;;;;20.84;50.84;100116.30;2345563;74;51533;-80
2024/03/23 01:38:28;;;;;;;19.98;11.48;;;;;;;20.85;50.83;100120.63;2383512;74;51442;-82
2024/03/23 01:41:30;;;;;;;19.60;11.68;;;;;;;20.84;50.80;100105.55;2344100;74;49630;-82
2024/03/23 01:44:32;;;;;;;19.75;10.90;;;;;;;20.84;50.78;100088.07;2383251;74;50793;-81
2024/03/23 01:47:35;;;;;;;18.82;10.85;;;;;;;20.86;50.79;100077.94;2383101;74;51459;-82
2024/03/23 01:50:37;;;;;;;21.35;11.10;;;;;;;20.84;50.83;100072.75;2383507;74;50771;-81
2024/03/23 01:53:39;;;;;;;21.27;11.55;;;;;;;20.86;50.81;100075.24;2400199;73;50606;-81
2024/03/23 01:56:41;;;;;;;17.12;11.15;;;;;;;20.84;50.79;100075.44;2382273;73;50918;-81
2024/03/23 01:59:43;;;;;;;21.50;10.50;;;;;;;20.85;50.75;100077.08;2418620;73;50710;-81
2024/03/23 02:02:46;;;;;;;17.85;10.72;;;;;;;20.84;50.68;100071.94;2419927;73;50020;-79
2024/03/23 02:05:48;;;;;;;18.27;10.25;;;;;;;20.86;50.67;100073.90;2355767;73;50941;-82
2024/03/23 02:08:50;;;;;;;19.15;10.15;;;;;;;20.83;50.61;100060.36;2401215;73;50387;-81
2024/03/23 02:11:52;;;;;;;17.57;9.90;;;;;;;20.84;50.54;100077.31;2383952;74;50778;-82
2024/03/23 02:14:54;;;;;;;19.05;10.05;;;;;;;20.83;50.58;100068.42;2383832;74;51517;-81
2024/03/23 02:17:57;;;;;;;16.73;10.48;;;;;;;20.84;50.56;100070.59;2401037;73;50709;-81
2024/03/23 02:20:59;;;;;;;18.65;9.98;;;;;;;20.84;50.57;100067.37;2391148;73;50974;-81
2024/03/23 02:24:01;;;;;;;19.73;10.25;;;;;;;20.83;50.56;100068.92;2382429;74;50400;-82
2024/03/23 02:27:03;;;;;;;14.83;9.25;;;;;;;20.84;50.54;100066.03;2382299;74;50791;-82
2024/03/23 02:30:06;;;;;;;17.17;9.40;;;;;;;20.84;50.49;100058.48;2311466;73;49342;-83
2024/03/23 02:33:08;;;;;;;16.57;9.88;;;;;;;20.84;50.40;100048.55;2386151;73;51595;-83
2024/03/23 02:36:11;;;;;;;16.00;8.78;;;;;;;20.84;50.38;100042.36;2385418;73;51440;-82
2024/03/23 02:39:13;;;;;;;15.83;9.20;;;;;;;20.84;50.40;100039.66;2385975;73;50713;-81
2024/03/23 02:42:17;;;;;;;17.00;8.78;;;;;;;20.84;50.33;100031.59;2348099;74;51344;-81
2024/03/23 02:45:19;;;;;;;19.20;8.88;;;;;;;20.83;50.32;100028.09;2382806;74;22657;-82
2024/03/23 02:48:21;;;;;;;14.55;8.40;;;;;;;20.82;50.29;100017.53;2344947;74;51402;-83
2024/03/23 02:51:24;;;;;;;14.68;8.45;;;;;;;20.83;50.28;100017.83;2393874;73;51035;-82
2024/03/23 02:54:26;;;;;;;15.08;9.08;;;;;;;20.84;50.22;100010.09;2409911;73;50809;-82
2024/03/23 02:57:28;;;;;;;15.78;8.53;;;;;;;20.84;50.31;100010.09;2410001;73;50093;-82
2024/03/23 03:00:30;;;;;;;15.45;8.63;;;;;;;20.83;50.33;100009.77;2418455;73;50677;-82
2024/03/23 03:03:32;;;;;;;14.55;8.30;;;;;;;20.84;50.40;100009.56;2388063;73;50366;-82
2024/03/23 03:06:35;;;;;;;16.37;8.30;;;;;;;20.86;50.40;100012.88;2382603;74;50766;-82
2024/03/23 03:09:38;;;;;;;15.03;8.55;;;;;;;20.86;50.39;100010.70;2344863;74;50926;-81
2024/03/23 03:12:41;;;;;;;14.65;8.10;;;;;;;20.86;50.39;100006.67;2382762;74;50549;-81
2024/03/23 03:15:47;;;;;;;10.98;7.45;;;;;;;20.86;50.34;100014.22;2382893;74;51697;-81
2024/03/23 03:18:49;;;;;;;14.60;7.10;;;;;;;20.85;50.35;100009.04;2345304;74;50861;-81
2024/03/23 03:21:51;;;;;;;14.85;7.87;;;;;;;20.86;50.32;100003.98;2382543;74;51743;-81
2024/03/23 03:24:53;;;;;;;15.93;7.62;;;;;;;20.86;50.30;99994.05;2382248;74;50796;-83
2024/03/23 03:27:55;;;;;;;14.68;7.58;;;;;;;20.84;50.27;99984.55;2392882;73;50250;-81
2024/03/23 03:30:58;;;;;;;13.85;7.60;;;;;;;20.87;50.21;99988.14;2423378;73;50349;-82
2024/03/23 03:34:00;;;;;;;12.63;7.25;;;;;;;20.83;50.21;99983.72;2383706;73;49641;-82
2024/03/23 03:37:02;;;;;;;15.10;7.33;;;;;;;20.84;50.17;99981.85;2423214;73;50394;-81
2024/03/23 03:40:05;;;;;;;13.38;6.60;;;;;;;20.83;50.13;99979.69;2419536;73;50714;-80
2024/03/23 03:43:07;;;;;;;10.48;6.22;;;;;;;20.85;50.09;99974.08;2331890;73;50101;-80
2024/03/23 03:46:10;;;;;;;12.07;7.22;;;;;;;20.83;50.11;99965.39;2424370;73;51429;-80
2024/03/23 03:49:13;;;;;;;14.30;7.40;;;;;;;20.83;50.08;99961.36;2379145;73;49554;-82
2024/03/23 03:52:15;;;;;;;14.10;7.25;;;;;;;20.84;50.07;99964.38;2384328;73;50794;-82
2024/03/23 03:55:18;;;;;;;14.20;7.45;;;;;;;20.85;50.06;99980.80;2401795;73;51408;-81
2024/03/23 03:58:20;;;;;;;10.05;6.37;;;;;;;20.84;50.11;99973.78;2358186;73;50096;-83
2024/03/23 04:01:22;;;;;;;14.20;7.12;;;;;;;20.83;50.13;99968.94;2360564;74;50991;-82
2024/03/23 04:04:24;;;;;;;15.63;6.80;;;;;;;20.84;50.12;99963.85;2319531;74;51373;-82
2024/03/23 04:07:26;;;;;;;12.10;6.33;;;;;;;20.83;50.12;99955.98;2345691;74;52509;-81
2024/03/23 04:10:29;;;;;;;11.95;6.10;;;;;;;20.83;50.14;99950.11;2383470;74;50631;-82
2024/03/23 04:13:31;;;;;;;11.60;6.25;;;;;;;20.83;50.12;99946.08;2383532;74;50790;-80
2024/03/23 04:16:36;;;;;;;12.90;6.55;;;;;;;20.84;50.10;99937.48;2383349;74;50743;-81
2024/03/23 04:19:39;;;;;;;12.60;6.60;;;;;;;20.83;50.09;99931.78;2346278;74;51040;-81
2024/03/23 04:22:41;;;;;;;10.72;6.03;;;;;;;20.82;50.07;99943.59;2345588;74;50054;-81
2024/03/23 04:25:44;;;;;;;12.05;6.35;;;;;;;20.82;50.00;99950.31;2345698;74;50615;-82
2024/03/23 04:28:46;;;;;;;12.18;6.25;;;;;;;20.84;49.98;99950.93;2345778;74;51021;-81
2024/03/23 04:31:48;;;;;;;11.10;5.72;;;;;;;20.82;49.93;99939.56;2347663;73;52363;-82
2024/03/23 04:34:51;;;;;;;10.93;6.00;;;;;;;20.82;49.91;99943.06;2426088;73;51634;-82
2024/03/23 04:37:53;;;;;;;12.20;6.12;;;;;;;20.84;49.88;99957.13;2416617;73;50305;-80
2024/03/23 04:40:57;;;;;;;11.90;6.20;;;;;;;20.82;49.92;99940.37;2373684;73;51034;-82
2024/03/23 04:44:00;;;;;;;11.63;6.08;;;;;;;20.83;49.88;99943.39;2381494;74;50744;-82
2024/03/23 04:47:02;;;;;;;11.83;5.75;;;;;;;20.82;49.87;99930.15;2382562;74;50778;-82
2024/03/23 04:50:05;;;;;;;11.68;6.10;;;;;;;20.81;49.87;99923.13;2401436;73;52417;-82
2024/03/23 04:53:07;;;;;;;12.40;5.70;;;;;;;20.81;49.85;99908.34;2382799;74;51480;-82
2024/03/23 04:56:09;;;;;;;10.30;5.55;;;;;;;20.80;49.79;99906.16;2384837;73;50724;-81
2024/03/23 04:59:12;;;;;;;10.40;5.58;;;;;;;20.81;49.75;99913.20;2424986;73;51582;-81
2024/03/23 05:02:15;;;;;;;11.97;5.67;;;;;;;20.80;49.70;99906.68;2425204;73;50695;-82
2024/03/23 05:05:18;;;;;;;8.78;5.05;;;;;;;20.80;49.70;99898.09;2424956;73;51800;-82
2024/03/23 05:08:20;;;;;;;9.13;5.45;;;;;;;20.79;49.65;99896.45;2424871;73;50657;-82
2024/03/23 05:11:22;;;;;;;10.82;4.87;;;;;;;20.79;49.66;99901.83;2424924;73;51516;-82
2024/03/23 05:14:24;;;;;;;11.05;5.40;;;;;;;20.80;49.66;99904.81;2385421;73;50184;-83
2024/03/23 05:17:27;;;;;;;9.40;5.17;;;;;;;20.79;49.61;99910.42;2347530;74;50771;-84
2024/03/23 05:20:29;;;;;;;11.40;5.15;;;;;;;20.80;49.63;99901.30;2382838;74;51489;-83
2024/03/23 05:23:31;;;;;;;9.63;4.70;;;;;;;20.79;49.65;99892.95;2382739;74;51498;-83
2024/03/23 05:26:34;;;;;;;9.48;4.90;;;;;;;20.80;49.69;99897.27;2398767;73;51424;-83
2024/03/23 05:29:36;;;;;;;7.15;4.60;;;;;;;20.79;49.70;99895.63;2386068;73;51199;-82
2024/03/23 05:32:40;;;;;;;9.85;5.08;;;;;;;20.79;49.68;99884.88;2363182;74;50961;-81
2024/03/23 05:35:42;;;;;;;12.00;5.37;;;;;;;20.78;49.75;99880.52;2382804;74;51207;-81
2024/03/23 05:38:44;;;;;;;9.43;4.80;;;;;;;20.78;49.77;99885.41;2345011;74;49681;-82
2024/03/23 05:41:46;;;;;;;6.42;4.22;;;;;;;20.79;49.73;99878.16;2382904;74;50744;-82
2024/03/23 05:44:48;;;;;;;7.62;4.75;;;;;;;20.77;49.73;99863.57;2383020;73;51435;-83
2024/03/23 05:47:51;;;;;;;7.03;4.30;;;;;;;20.78;49.63;99856.33;2394141;73;51588;-82
2024/03/23 05:50:53;;;;;;;8.80;4.47;;;;;;;20.78;49.60;99861.20;2419210;73;51465;-81
2024/03/23 05:53:55;;;;;;;9.43;4.75;;;;;;;20.77;49.58;99851.47;2410594;73;51752;-82
2024/03/23 05:56:57;;;;;;;10.05;4.67;;;;;;;20.77;49.55;99844.75;2402816;72;50845;-81
2024/03/23 05:59:59;;;;;;;7.42;4.12;;;;;;;20.78;49.51;99841.54;2419392;72;50561;-81
2024/03/23 06:03:02;;;;;;;6.42;4.33;;;;;;;20.78;49.49;99837.50;2411961;72;49226;-81
2024/03/23 06:06:05;;;;;;;7.05;3.92;;;;;;;20.77;49.54;99830.49;2420696;72;50757;-81
2024/03/23 06:09:07;;;;;;;6.92;4.05;;;;;;;20.78;49.53;99821.38;2366632;74;50809;-83
2024/03/23 06:12:09;;;;;;;6.08;4.05;;;;;;;20.78;49.51;99816.00;2385249;74;50737;-82
2024/03/23 06:15:12;;;;;;;7.62;4.55;;;;;;;20.78;49.49;99811.97;2383043;74;50125;-81
2024/03/23 06:18:14;;;;;;;13.72;4.12;;;;;;;20.78;49.55;99802.55;2318967;74;50281;-81
2024/03/23 06:21:16;;;;;;;12.60;4.25;;;;;;;20.77;49.63;99799.58;2417531;73;51405;-81
2024/03/23 06:24:19;;;;;;;14.85;5.37;;;;;;;20.80;49.80;99807.20;2418653;73;50228;-81
2024/03/23 06:27:21;;;;;;;22.75;4.65;;;;;;;20.78;49.94;99786.42;2409941;73;49595;-82
2024/03/23 06:30:23;;;;;;;10.63;3.90;;;;;;;20.77;50.12;99788.30;2403440;73;50513;-82
2024/03/23 06:33:25;;;;;;;8.65;4.17;;;;;;;20.78;50.35;99794.48;2382486;74;50830;-80
2024/03/23 06:36:27;;;;;;;9.15;4.25;;;;;;;20.80;50.43;99808.55;2381474;73;51610;-80
2024/03/23 06:39:30;;;;;;;12.73;4.22;;;;;;;20.81;50.51;99802.96;2366898;73;50768;-81
2024/03/23 06:42:32;;;;;;;9.53;4.05;;;;;;;20.82;50.27;99793.02;2330607;72;49403;-81
2024/03/23 06:45:34;;;;;;;9.25;3.25;;;;;;;20.82;50.05;99784.95;2410786;72;50683;-80
2024/03/23 06:48:36;;;;;;;11.70;3.60;;;;;;;20.82;49.56;99779.58;2385078;72;51486;-80
2024/03/23 06:51:39;;;;;;;17.35;3.85;;;;;;;20.82;48.74;99774.20;2346605;73;51707;-82
2024/03/23 06:54:41;;;;;;;12.05;3.37;;;;;;;20.80;48.65;99772.25;2411122;72;51236;-80
2024/03/23 06:57:43;;;;;;;14.95;3.80;;;;;;;20.79;49.21;99764.71;2429781;72;50399;-81
2024/03/23 07:00:46;;;;;;;8.88;3.52;;;;;;;20.82;49.38;99764.27;2426528;72;50790;-81
2024/03/23 07:03:48;;;;;;;8.95;3.20;;;;;;;20.82;49.29;99760.23;2370231;72;50554;-79
2024/03/23 07:06:50;;;;;;;16.05;3.67;;;;;;;20.80;49.42;99759.63;2342795;74;49592;-80
2024/03/23 07:09:52;;;;;;;9.25;3.10;;;;;;;20.86;49.43;99763.33;2435511;72;50303;-79
2024/03/23 07:12:55;;;;;;;17.37;3.40;;;;;;;20.85;49.43;99761.12;2419645;72;50360;-79
2024/03/23 07:15:58;;;;;;;11.08;3.20;;;;;;;20.84;49.45;99755.98;2345199;74;50040;-80
2024/03/23 07:19:00;;;;;;;12.35;3.70;;;;;;;20.86;49.49;99759.29;2413743;72;50764;-80
2024/03/23 07:22:02;;;;;;;9.43;2.87;;;;;;;20.85;49.51;99756.28;2359441;73;50197;-79
2024/03/23 07:25:05;;;;;;;9.93;3.33;;;;;;;20.84;49.50;99760.02;2418180;73;50727;-79
2024/03/23 07:28:08;;;;;;;14.78;3.12;;;;;;;20.87;49.61;99748.82;2422908;73;51518;-79
2024/03/23 07:31:12;;;;;;;10.98;3.47;;;;;;;20.86;49.82;99743.16;2358479;73;51167;-79
2024/03/23 07:34:15;;;;;;;32.33;3.60;;;;;;;20.87;49.87;99743.45;2390999;73;50740;-80
2024/03/23 07:37:17;;;;;;;19.32;3.60;;;;;;;20.87;49.88;99750.98;2404058;73;51482;-79
2024/03/23 07:40:19;;;;;;;16.23;3.10;;;;;;;20.87;49.89;99752.33;2369423;73;50078;-79
2024/03/23 07:43:21;;;;;;;14.40;3.40;;;;;;;20.90;49.93;99754.28;2411017;72;51281;-78
2024/03/23 07:46:25;;;;;;;23.57;3.55;;;;;;;20.91;49.70;99746.01;2371069;74;50318;-80
2024/03/23 07:49:27;;;;;;;19.77;3.72;;;;;;;20.91;49.97;99746.50;2376492;74;51431;-81
2024/03/23 07:52:30;;;;;;;25.72;4.42;;;;;;;20.92;49.99;99746.30;2417724;73;51210;-85
2024/03/23 07:55:33;;;;;;;22.80;3.30;;;;;;;20.92;49.98;99746.30;2381184;73;51043;-84
2024/03/23 07:58:36;;;;;;;13.40;3.67;;;;;;;20.92;50.11;99746.30;2425110;73;50813;-85
2024/03/23 08:01:38;;;;;;;17.52;3.72;;;;;;;20.98;50.07;99733.83;2424477;73;50813;-85
2024/03/23 08:04:40;;;;;;;19.85;4.10;;;;;;;20.98;50.12;99730.61;2344108;73;50075;-84
2024/03/23 08:07:42;;;;;;;15.70;3.70;;;;;;;21.00;50.36;99736.59;2386820;73;51393;-86
2024/03/23 08:10:53;;;;;;;18.85;3.70;;;;;;;21.00;50.64;99739.81;2432281;72;51449;-80
2024/03/23 08:13:56;;;;;;;24.52;5.05;;;;;;;21.00;51.16;99722.33;2390150;73;52287;-79
2024/03/23 08:16:58;;;;;;;24.32;4.17;;;;;;;21.09;55.59;99717.80;2390258;72;50719;-78
2024/03/23 08:20:00;;;;;;;27.40;4.33;;;;;;;21.15;52.50;99717.95;2343556;74;51133;-77
2024/03/23 08:23:02;;;;;;;24.50;4.30;;;;;;;21.19;52.14;99704.34;2339407;76;51477;-78
2024/03/23 08:26:06;;;;;;;20.60;4.03;;;;;;;21.22;51.99;99701.20;2381074;74;51446;-77
2024/03/23 08:29:09;;;;;;;26.05;4.40;;;;;;;21.20;51.93;99700.09;2315157;74;49598;-79
2024/03/23 08:32:12;;;;;;;23.83;3.85;;;;;;;21.19;51.74;99698.95;2381001;73;50141;-79
2024/03/23 08:35:14;;;;;;;16.57;3.60;;;;;;;21.20;51.60;99704.66;2380999;74;51562;-79
2024/03/23 08:38:17;;;;;;;21.75;3.65;;;;;;;21.19;51.47;99707.84;2316807;74;51528;-79
2024/03/23 08:41:19;;;;;;;17.80;4.00;;;;;;;21.18;51.50;99704.05;2343213;74;50728;-79
2024/03/23 08:44:21;;;;;;;17.92;3.47;;;;;;;21.17;51.42;99699.20;2393242;73;51583;-78
2024/03/23 08:47:23;;;;;;;21.10;4.22;;;;;;;21.17;51.44;99701.05;2388087;73;50716;-79
2024/03/23 08:50:25;;;;;;;25.00;3.87;;;;;;;21.17;51.40;99709.11;2425109;72;50624;-78
2024/03/23 08:53:30;;;;;;;21.77;4.65;;;;;;;21.17;51.47;99702.39;2388224;73;52997;-79
2024/03/23 08:56:32;;;;;;;20.48;4.08;;;;;;;21.16;51.51;99710.17;2425030;73;50242;-78
2024/03/23 08:59:34;;;;;;;23.32;3.77;;;;;;;21.18;51.48;99713.47;2390502;73;50489;-79
2024/03/23 09:02:36;;;;;;;25.25;3.58;;;;;;;21.15;51.55;99711.23;2427611;73;50792;-83
2024/03/23 09:05:42;;;;;;;17.37;3.67;;;;;;;21.15;51.43;99707.20;2426606;73;51610;-80
2024/03/23 09:08:44;;;;;;;26.62;4.15;;;;;;;21.14;51.37;99711.73;2369823;73;51780;-80
2024/03/23 09:11:46;;;;;;;25.15;3.22;;;;;;;21.13;51.01;99719.51;2385822;73;51448;-81
2024/03/23 09:14:49;;;;;;;25.05;3.60;;;;;;;21.11;50.67;99708.14;2372726;74;50286;-80
2024/03/23 09:17:51;;;;;;;17.80;3.45;;;;;;;21.11;50.57;99714.87;2322247;73;50241;-80
2024/03/23 09:20:54;;;;;;;19.10;3.95;;;;;;;21.08;50.53;99728.23;2426304;73;51009;-81
2024/03/23 09:23:56;;;;;;;29.12;4.03;;;;;;;21.08;50.49;99716.13;2426089;73;51455;-80
2024/03/23 09:26:58;;;;;;;22.20;3.72;;;;;;;21.09;50.39;99731.74;2425738;71;50409;-81
2024/03/23 09:30:00;;;;;;;23.55;4.37;;;;;;;21.09;50.56;99735.28;2395945;71;50626;-78
2024/03/23 09:33:04;;;;;;;26.87;4.10;;;;;;;21.10;50.63;99729.38;2443650;71;52636;-78
2024/03/23 09:36:06;;;;;;;29.70;3.83;;;;;;;21.09;50.71;99728.56;2415351;71;50730;-80
2024/03/23 09:39:09;;;;;;;37.42;4.67;;;;;;;21.09;50.97;99733.94;2444062;71;50757;-79
2024/03/23 09:42:11;;;;;;;33.42;4.60;;;;;;;21.10;50.85;99731.53;2414181;71;51127;-79
2024/03/23 09:45:16;;;;;;;21.75;3.67;;;;;;;21.10;51.11;99736.91;2436673;71;51507;-77
2024/03/23 09:48:18;;;;;;;;;;;;;;;21.10;51.30;99749.55;2347206;74;51184;-78
2024/03/23 09:51:20;;;;;;;39.98;4.40;;;;;;;21.09;51.10;99741.16;2344285;74;49528;-79
2024/03/23 09:54:22;;;;;;;32.98;3.52;;;;;;;21.09;51.06;99746.05;2382395;74;50359;-79
2024/03/23 09:57:25;;;;;;;31.57;3.92;;;;;;;21.09;51.00;99766.72;2387488;73;50697;-78
2024/03/23 10:00:27;;;;;;;18.32;3.02;;;;;;;21.08;51.06;99768.59;2382057;74;51491;-80
2024/03/23 10:03:29;;;;;;;29.37;3.70;;;;;;;21.08;51.31;99775.84;2381724;74;51505;-79
2024/03/23 10:06:31;;;;;;;18.07;3.52;;;;;;;21.07;51.21;99784.97;2317435;74;50950;-77
2024/03/23 10:09:33;;;;;;;30.68;3.50;;;;;;;21.09;51.22;99802.53;2381635;73;50734;-76
2024/03/23 10:12:36;;;;;;;21.95;3.98;;;;;;;21.06;51.20;99808.33;2381607;73;51382;-78
2024/03/23 10:15:38;;;;;;;26.77;4.33;;;;;;;21.07;51.34;99812.68;2343549;74;51218;-77
2024/03/23 10:18:40;;;;;;;21.37;2.83;;;;;;;21.06;51.74;99816.39;2381720;74;50136;-78
2024/03/23 10:21:46;;;;;;;27.90;3.42;;;;;;;20.94;46.87;99823.55;2381945;74;51585;-77
2024/03/23 10:24:48;;;;;;;;;;;;;;;20.96;50.77;99808.02;2381834;73;51473;-78
2024/03/23 10:28:02;;;;;;;42.13;3.17;;;;;;;20.98;49.68;99811.30;2381795;74;50798;-78
2024/03/23 10:31:08;;;;;;;25.90;4.10;;;;;;;21.01;49.93;99812.72;2382172;74;50798;-76
2024/03/23 10:34:09;;;;;;;;;;;;;;;21.01;50.13;99820.27;2383010;74;50780;-79
2024/03/23 10:37:13;;;;;;;14.03;2.92;;;;;;;21.01;50.28;99819.45;2373922;73;50772;-78
2024/03/23 10:40:16;;;;;;;14.98;2.85;;;;;;;21.03;50.46;99828.94;2417735;73;51582;-78
2024/03/23 10:43:18;;;;;;;19.42;2.83;;;;;;;21.04;51.59;99830.61;2417760;73;50840;-77
2024/03/23 10:46:20;;;;;;;25.57;3.52;;;;;;;21.05;51.45;99834.93;2387696;73;51644;-77
2024/03/23 10:49:23;;;;;;;28.55;3.67;;;;;;;21.07;51.49;99840.92;2400003;73;50109;-78
2024/03/23 10:52:25;;;;;;;24.60;3.37;;;;;;;21.12;51.71;99835.39;2344408;74;50792;-77
2024/03/23 10:55:28;;;;;;;18.48;3.30;;;;;;;21.13;51.66;99834.36;2381635;74;51577;-78
2024/03/23 10:58:45;;;;;;;23.02;3.33;;;;;;;21.13;51.65;99831.67;2343883;74;49609;-77
2024/03/23 11:01:59;;;;;;;16.23;3.37;;;;;;;21.11;51.53;99839.95;2384641;73;50814;-78
2024/03/23 11:05:01;;;;;;;22.07;3.83;;;;;;;21.15;51.73;99839.01;2420540;73;50778;-79
2024/03/23 11:08:03;;;;;;;21.82;3.47;;;;;;;21.13;51.55;99858.57;2424471;73;51515;-78
2024/03/23 11:11:22;;;;;;;18.10;3.77;;;;;;;21.13;51.52;99848.63;2424337;73;50417;-78
2024/03/23 11:14:24;;;;;;;14.93;3.30;;;;;;;21.12;51.52;99843.45;2385064;73;50912;-77
2024/03/23 11:17:27;;;;;;;18.30;3.35;;;;;;;21.13;51.55;99838.40;2424190;73;51531;-77
2024/03/23 11:20:33;;;;;;;24.00;3.40;;;;;;;21.14;51.59;99844.06;2424403;73;50361;-78
2024/03/23 11:23:35;;;;;;;27.10;4.00;;;;;;;21.10;51.63;99843.70;2384725;73;52444;-78
2024/03/23 11:26:39;;;;;;;69.62;7.58;;;;;;;21.10;51.90;99841.82;2386065;73;51408;-81
2024/03/23 11:29:41;;;;;;;33.92;4.05;;;;;;;21.12;51.81;99842.11;2363178;74;51513;-80
2024/03/23 11:32:47;;;;;;;37.48;4.40;;;;;;;21.12;52.10;99859.10;2409331;73;51471;-81
2024/03/23 11:35:51;;;;;;;37.60;4.22;;;;;;;21.15;52.13;99851.11;2382605;73;50646;-81
2024/03/23 11:38:53;;;;;;;28.83;3.70;;;;;;;21.15;52.52;99857.84;2382823;73;50131;-80
2024/03/23 11:41:57;;;;;;;24.72;4.12;;;;;;;21.17;53.56;99857.08;2419179;73;50272;-80
2024/03/23 11:44:59;;;;;;;24.75;3.87;;;;;;;21.22;53.95;99855.40;2397074;73;50711;-83
2024/03/23 11:48:09;;;;;;;26.93;3.52;;;;;;;21.19;53.94;99855.00;2400877;73;50066;-82
2024/03/23 11:51:11;;;;;;;19.92;3.87;;;;;;;21.22;54.15;99859.93;2372841;73;51616;-82
2024/03/23 11:54:13;;;;;;;28.02;3.70;;;;;;;21.23;54.15;99866.98;2382816;74;50795;-83
2024/03/23 11:57:16;;;;;;;28.77;3.12;;;;;;;21.23;53.69;99869.14;2382147;74;51507;-82
2024/03/23 12:00:24;;;;;;;24.43;3.05;;;;;;;21.23;53.74;99865.63;2382301;74;50364;-81
2024/03/23 12:03:28;;;;;;;26.70;3.67;;;;;;;21.25;53.46;99856.83;2369374;73;49545;-82
2024/03/23 12:06:30;;;;;;;20.75;3.25;;;;;;;21.23;53.27;99873.70;2345129;74;51695;-83
2024/03/23 12:09:34;;;;;;;18.25;3.17;;;;;;;21.23;53.06;99866.98;2382614;74;50391;-83
2024/03/23 12:12:36;;;;;;;30.70;3.42;;;;;;;21.21;52.97;99873.09;2293483;74;50369;-84
2024/03/23 12:15:38;;;;;;;15.25;3.08;;;;;;;21.20;53.01;99870.93;2343375;74;50674;-82
2024/03/23 12:18:41;;;;;;;16.77;3.37;;;;;;;21.21;52.83;99873.09;2381712;74;51586;-83
2024/03/23 12:21:44;;;;;;;19.10;3.12;;;;;;;21.19;52.72;99866.58;2319040;73;51534;-85
2024/03/23 12:24:47;;;;;;;16.23;2.85;;;;;;;21.19;52.74;99863.06;2383204;74;50467;-84
2024/03/23 12:27:49;;;;;;;13.75;2.40;;;;;;;21.16;52.56;99858.95;2395397;73;50123;-84
2024/03/23 12:30:52;;;;;;;17.82;2.90;;;;;;;21.17;52.49;99861.11;2425890;73;51502;-85
2024/03/23 12:33:54;;;;;;;10.35;3.08;;;;;;;21.14;52.32;99871.79;2425995;73;50997;-84
2024/03/23 12:36:56;;;;;;;23.07;3.27;;;;;;;21.13;52.28;99865.30;2386505;73;49941;-84
2024/03/23 12:39:58;;;;;;;15.78;3.77;;;;;;;21.10;52.17;99868.72;2385554;73;49987;-84
2024/03/23 12:43:00;;;;;;;16.57;3.00;;;;;;;21.12;52.12;99854.22;2383918;74;50673;-84
2024/03/23 12:46:03;;;;;;;13.45;2.50;;;;;;;21.09;52.05;99853.64;2383650;74;51506;-83
2024/03/23 12:49:05;;;;;;;16.55;3.72;;;;;;;21.10;52.05;99859.30;2345673;74;50830;-83
2024/03/23 12:52:08;;;;;;;10.93;2.52;;;;;;;21.09;52.00;99847.41;2320001;74;51620;-83
2024/03/23 12:55:10;;;;;;;17.10;3.52;;;;;;;21.07;52.03;99846.30;2384225;74;51569;-81
2024/03/23 12:58:12;;;;;;;12.35;3.05;;;;;;;21.07;52.06;99843.61;2383859;74;51010;-81
2024/03/23 13:01:14;;;;;;;28.02;3.87;;;;;;;21.05;52.23;99843.00;2373839;73;49944;-82
2024/03/23 13:04:17;;;;;;;30.43;4.95;;;;;;;21.03;52.60;99846.42;2375068;73;50128;-81
2024/03/23 13:07:19;;;;;;;25.92;4.28;;;;;;;21.07;52.53;99850.86;2384209;73;51755;-80
2024/03/23 13:10:21;;;;;;;34.90;5.45;;;;;;;21.08;52.47;99844.43;2361486;73;50504;-79
2024/03/23 13:13:24;;;;;;;26.60;5.50;;;;;;;21.09;52.30;99848.26;2357726;73;50166;-80
2024/03/23 13:16:26;;;;;;;35.05;5.62;;;;;;;21.08;52.29;99845.77;2374151;73;51573;-79
2024/03/23 13:19:30;;;;;;;22.65;5.62;;;;;;;21.10;52.29;99845.04;2385339;74;50964;-80
2024/03/23 13:22:32;;;;;;;30.55;6.58;;;;;;;21.10;52.26;99845.86;2388812;73;22056;-80
2024/03/23 13:25:34;;;;;;;31.45;5.80;;;;;;;21.11;52.25;99848.02;2403763;73;50717;-80
2024/03/23 13:28:37;;;;;;;30.12;5.70;;;;;;;21.11;52.20;99837.27;2385985;73;50838;-81
2024/03/23 13:31:39;;;;;;;38.88;6.05;;;;;;;21.12;52.23;99842.96;2414910;73;51949;-80
2024/03/23 13:34:41;;;;;;;46.73;6.17;;;;;;;21.13;52.16;99827.64;2383332;73;51022;-79
2024/03/23 13:37:43;;;;;;;44.40;6.17;;;;;;;21.16;52.21;99830.70;2417282;72;50528;-77
2024/03/23 13:40:58;;;;;;;40.80;5.65;;;;;;;21.19;52.24;99833.47;2417589;73;50328;-77
2024/03/23 13:44:00;;;;;;;41.60;6.30;;;;;;;21.19;52.28;99829.44;2349222;74;51021;-80
2024/03/23 13:47:03;;;;;;;31.30;6.10;;;;;;;21.26;52.18;99828.86;2382071;74;51575;-77
2024/03/23 13:50:07;;;;;;;39.35;5.50;;;;;;;21.25;52.21;99834.77;2385366;73;50421;-79
2024/03/23 13:53:09;;;;;;;34.05;5.53;;;;;;;21.25;52.18;99828.05;2358912;73;51631;-78
2024/03/23 13:56:11;;;;;;;25.70;5.62;;;;;;;21.25;52.23;99830.73;2424704;73;51647;-77
2024/03/23 13:59:28;;;;;;;30.23;5.62;;;;;;;21.24;52.07;99821.00;2331765;73;50242;-78
2024/03/23 14:02:49;;;;;;;31.85;5.83;;;;;;;21.25;51.89;99824.54;2218012;79;22190;-79
2024/03/23 14:06:12;;;;;;;36.98;5.87;;;;;;;21.27;52.10;99830.50;2158337;81;22591;-80
2024/03/23 14:09:14;;;;;;;28.75;4.97;;;;;;;21.28;52.49;99832.16;2157071;82;23193;-79